Seattle Tacoma International Airport
KSEA : now visible

Airfield :











YOU CAN JOIN US ON...

 
LOGIN :

Register | Disclaimer

   EN    FR    IT 

 









Legend :    VFR   Marginal VFR   IFR   Intensive IFR   Very Intensive IFR
Visi :
Ceiling :
>= 8 km
>= 3000ft
5 to 8 km
1000 to 3000 ft
1500m to 5 km
500 to 1000 ft
800 to 1500m
200 to 500 ft
< 800m
< 200 ft
Symbols :   Thunderstorms  Fog  Heavy snow  Heavy precipitations  Wind > 20 kt






- Airport Elevation : 433 ft
- IATA code : SEA


KSEA - Seattle Tacoma International

CURRENT METAR :
  • 031953Z 20011KT 5SM -RA BR SCT007 OVC019 12/11 A2995 RMK AO2 RAE28B46 SLP149 P0002 T01220111 $

EXPIRED METARs :
  • 031925Z 19008KT 5SM -RA BR BKN007 BKN013 OVC019 12/12 A2995 RMK AO2 P0002 T01220117 $
  • 031902Z 18007KT 7SM -RA FEW007 BKN013 OVC032 13/12 A2995 RMK AO2 P0001 T01280117 $
  • 031853Z 17009KT 7SM -RA BKN013 OVC030 13/11 A2995 RMK AO2 RAB53 SLP147 P0000 T01280111 $
  • 031813Z 17006KT 7SM FEW009 OVC018 13/11 A2994 RMK AO2 T01280111 $
  • 030453Z 22006KT 10SM FEW025 BKN039 17/12 A2992 RMK AO2 SLP135 T01670122 $
  • 031753Z 19007KT 10SM FEW010 SCT020 OVC041 13/11 A2994 RMK AO2 SLP142 60000 T01280111 10133 20122 56000 $

TAF KSEA
Valid from the 03 at 18:00 until the 05 at 00:00 UTC


031720Z 0318/0424 18006KT P6SM VCSH SCT010 OVC020
FM032000 21008KT P6SM -SHRA OVC020
FM040300 23005KT P6SM BKN040
FM040700 20004KT P6SM OVC025
FM041000 17005KT P6SM OVC015
FM041600 23004KT P6SM OVC020
KZSE FIR / North America



MET'MAP, your aeronautical weather chart ! - Copyright ORBIFLY December 2007 - Disclaimer

ORBIFLY MET'MAP TEAM :

Programming & Development : Alexandra Zaïnal
Original concept : Baudouin d'Aumeries
Technical & hardware support : Manuel Goepfert
Assistance : Marc-Olivier Méhu




SOURCES & CREDITS :

   NOAA       Earth
Advisory